createdAt,value
2023-02-19T00:01:00.947Z,8.67
2023-02-19T00:02:03.169Z,8.64
2023-02-19T00:03:05.467Z,8.71
2023-02-19T00:04:14.788Z,8.67
2023-02-19T00:05:17.047Z,8.66
2023-02-19T00:06:20.640Z,8.69
2023-02-19T00:07:22.845Z,8.67
2023-02-19T00:08:25.190Z,8.81
2023-02-19T00:09:27.454Z,8.80
2023-02-19T00:10:29.677Z,8.93
2023-02-19T00:11:34.075Z,8.94
2023-02-19T00:12:36.277Z,8.98
2023-02-19T00:13:41.295Z,9.03
2023-02-19T00:14:43.543Z,9.03
2023-02-19T00:15:45.810Z,8.84
2023-02-19T00:16:48.877Z,8.72
2023-02-19T00:17:51.171Z,8.76
2023-02-19T00:18:55.053Z,8.85
2023-02-19T00:19:57.492Z,8.86
2023-02-19T00:20:59.762Z,8.91
2023-02-19T00:22:01.959Z,8.84
2023-02-19T00:23:04.145Z,8.90
2023-02-19T00:24:08.100Z,8.87
2023-02-19T00:25:10.360Z,8.95
2023-02-19T00:26:18.643Z,8.93
2023-02-19T00:27:22.647Z,8.87
2023-02-19T00:28:24.948Z,8.78
2023-02-19T00:29:27.833Z,8.76
2023-02-19T00:30:30.132Z,8.79
2023-02-19T00:31:34.692Z,8.81
2023-02-19T00:32:37.060Z,8.85
2023-02-19T00:33:39.293Z,8.90
2023-02-19T00:34:41.478Z,8.88
2023-02-19T00:35:43.707Z,8.89
2023-02-19T00:36:45.920Z,8.89
2023-02-19T00:37:48.226Z,8.85
2023-02-19T00:38:51.105Z,8.86
2023-02-19T00:39:53.390Z,8.82
2023-02-19T00:40:55.684Z,8.81
2023-02-19T00:42:00.752Z,8.88
2023-02-19T00:43:02.912Z,8.99
2023-02-19T00:44:07.444Z,9.02
2023-02-19T00:45:09.631Z,8.91
2023-02-19T00:46:12.015Z,8.93
2023-02-19T00:47:14.243Z,8.85
2023-02-19T00:48:16.414Z,8.86
2023-02-19T00:49:23.403Z,8.84
2023-02-19T00:50:25.899Z,8.87
2023-02-19T00:51:31.067Z,8.84
2023-02-19T00:52:33.282Z,8.78
2023-02-19T00:53:35.551Z,8.88
2023-02-19T00:54:37.760Z,8.89
2023-02-19T00:55:39.907Z,8.86
2023-02-19T00:56:42.572Z,8.80
2023-02-19T00:57:44.862Z,8.87
2023-02-19T00:58:47.382Z,8.91
2023-02-19T00:59:49.586Z,8.82
2023-02-19T01:00:52.851Z,8.83
2023-02-19T01:01:55.171Z,8.91
2023-02-19T01:02:57.504Z,8.92
2023-02-19T01:04:01.486Z,8.94
2023-02-19T01:05:03.894Z,8.97
2023-02-19T01:06:07.678Z,8.95
2023-02-19T01:07:10.188Z,9.07
2023-02-19T01:08:12.408Z,9.11
2023-02-19T01:09:14.716Z,9.20
2023-02-19T01:10:17.192Z,9.05
2023-02-19T01:11:20.234Z,9.21
2023-02-19T01:12:24.221Z,9.11
2023-02-19T01:13:28.166Z,9.26
2023-02-19T01:14:32.083Z,9.11
2023-02-19T01:15:34.652Z,9.03
2023-02-19T01:16:37.126Z,8.92
2023-02-19T01:17:39.386Z,9.07
2023-02-19T01:18:42.468Z,8.94
2023-02-19T01:19:44.654Z,9.00
2023-02-19T01:20:46.841Z,8.97
2023-02-19T01:21:48.988Z,8.91
2023-02-19T01:22:51.267Z,8.80
2023-02-19T01:23:54.587Z,8.79
2023-02-19T01:24:56.754Z,8.78
2023-02-19T01:25:58.964Z,8.71
2023-02-19T01:27:01.187Z,8.81
2023-02-19T01:28:03.518Z,8.73
2023-02-19T01:29:06.153Z,8.73
2023-02-19T01:30:09.675Z,8.70
2023-02-19T01:31:17.825Z,8.55
2023-02-19T01:32:20.173Z,8.52
2023-02-19T01:33:22.547Z,8.50
2023-02-19T01:34:26.946Z,8.43
2023-02-19T01:35:29.175Z,8.47
2023-02-19T01:36:34.183Z,8.52
2023-02-19T01:37:37.186Z,8.58
2023-02-19T01:38:39.378Z,8.63
2023-02-19T01:39:41.636Z,8.58
2023-02-19T01:40:44.344Z,8.47
2023-02-19T01:41:46.659Z,8.54
2023-02-19T01:42:48.902Z,8.51
2023-02-19T01:44:28.376Z,8.51
2023-02-19T01:45:35.431Z,8.41
2023-02-19T01:46:40.447Z,8.36
2023-02-19T01:47:42.697Z,8.50
2023-02-19T01:48:44.986Z,8.39
2023-02-19T01:49:54.859Z,8.47
2023-02-19T01:51:05.108Z,8.60
2023-02-19T01:52:18.660Z,8.36
2023-02-19T01:53:25.868Z,8.43
2023-02-19T01:54:34.755Z,8.42
2023-02-19T01:55:38.981Z,8.33
2023-02-19T01:56:42.744Z,8.18
2023-02-19T01:57:48.159Z,8.18
2023-02-19T01:58:53.219Z,8.18
2023-02-19T02:02:17.652Z,8.19
2023-02-19T02:03:20.955Z,8.27
2023-02-19T02:04:23.218Z,8.27
2023-02-19T02:05:41.484Z,8.36
2023-02-19T02:06:52.008Z,8.32
2023-02-19T02:08:12.743Z,8.19
2023-02-19T02:09:34.756Z,8.21
2023-02-19T02:10:36.993Z,8.22
2023-02-19T02:11:42.499Z,8.16
2023-02-19T02:12:44.722Z,8.08
2023-02-19T02:13:46.921Z,8.10
2023-02-19T02:14:49.132Z,8.03
2023-02-19T02:16:14.550Z,8.00
2023-02-19T02:17:26.578Z,8.00
2023-02-19T02:18:46.616Z,8.10
2023-02-19T02:20:15.836Z,8.07
2023-02-19T02:21:35.517Z,8.22
2023-02-19T02:23:02.600Z,8.10
2023-02-19T02:24:11.874Z,8.24
2023-02-19T02:25:45.369Z,8.22
2023-02-19T02:27:21.297Z,8.12
2023-02-19T02:29:04.144Z,8.27
2023-02-19T02:30:14.922Z,8.29
2023-02-19T02:31:22.981Z,8.31
2023-02-19T02:32:32.968Z,8.30
2023-02-19T02:33:35.118Z,8.27
2023-02-19T02:34:56.224Z,8.14
2023-02-19T02:36:07.187Z,8.32
2023-02-19T02:37:13.433Z,8.18
2023-02-19T02:38:20.161Z,8.19
2023-02-19T02:39:26.208Z,8.19
2023-02-19T02:40:31.354Z,8.23
2023-02-19T02:41:34.845Z,8.31
2023-02-19T02:42:39.940Z,8.20
2023-02-19T02:43:46.803Z,8.19
2023-02-19T02:45:09.502Z,8.41
2023-02-19T02:46:22.663Z,8.43
2023-02-19T02:47:41.570Z,8.29
2023-02-19T02:48:55.434Z,8.18
2023-02-19T02:50:07.734Z,8.36
2023-02-19T02:51:33.936Z,8.34
2023-02-19T02:53:03.688Z,8.49
2023-02-19T02:54:36.827Z,8.33
2023-02-19T02:55:47.236Z,8.48
2023-02-19T02:56:50.800Z,8.44
2023-02-19T02:57:53.478Z,8.45
2023-02-19T02:58:58.335Z,8.37
2023-02-19T03:00:00.651Z,8.24
2023-02-19T03:01:37.074Z,8.24
2023-02-19T03:02:41.919Z,8.31
2023-02-19T03:03:47.888Z,8.24
2023-02-19T03:05:16.376Z,8.24
2023-02-19T03:06:22.411Z,8.39
2023-02-19T03:07:31.361Z,8.20
2023-02-19T03:08:50.833Z,8.18
2023-02-19T03:09:55.019Z,8.10
2023-02-19T03:11:24.920Z,8.09
2023-02-19T03:12:49.505Z,8.17
2023-02-19T03:14:20.937Z,8.22
2023-02-19T03:15:47.637Z,8.40
2023-02-19T03:17:14.085Z,8.36
2023-02-19T03:18:36.826Z,8.22
2023-02-19T03:19:44.770Z,8.28
2023-02-19T03:20:51.585Z,8.20
2023-02-19T03:21:59.424Z,8.15
2023-02-19T03:23:02.234Z,8.23
2023-02-19T03:24:26.936Z,8.27
2023-02-19T03:25:51.604Z,8.11
2023-02-19T03:27:04.649Z,8.23
2023-02-19T03:28:17.493Z,8.36
2023-02-19T03:30:47.974Z,8.15
2023-02-19T03:31:55.075Z,8.18
2023-02-19T03:33:10.933Z,8.25
2023-02-19T03:34:22.791Z,8.17
2023-02-19T03:35:30.082Z,8.15
2023-02-19T03:36:44.027Z,8.22
2023-02-19T03:37:58.432Z,8.30
2023-02-19T03:39:05.824Z,8.33
2023-02-19T03:40:08.867Z,8.26
2023-02-19T03:41:20.529Z,8.21
2023-02-19T03:42:36.875Z,8.26
2023-02-19T03:44:00.638Z,8.22
2023-02-19T03:45:17.032Z,8.43
2023-02-19T03:46:34.931Z,8.39
2023-02-19T03:48:04.467Z,8.47
2023-02-19T03:49:15.404Z,8.53
2023-02-19T03:50:24.043Z,8.50
2023-02-19T03:51:54.179Z,8.53
2023-02-19T03:53:02.124Z,8.61
2023-02-19T03:54:30.604Z,8.56
2023-02-19T03:55:44.870Z,8.44
2023-02-19T03:56:54.050Z,8.32
2023-02-19T03:58:04.943Z,8.42
2023-02-19T03:59:41.267Z,8.41
2023-02-19T04:01:14.153Z,8.56
2023-02-19T04:02:23.732Z,8.50
2023-02-19T04:04:12.704Z,8.58
2023-02-19T04:05:20.682Z,8.65
2023-02-19T04:06:27.798Z,8.63
2023-02-19T04:07:34.807Z,8.67
2023-02-19T04:08:39.714Z,8.64
2023-02-19T04:09:48.933Z,8.51
2023-02-19T04:10:55.364Z,8.56
2023-02-19T04:12:01.988Z,8.59
2023-02-19T04:13:11.910Z,8.48
2023-02-19T04:14:24.744Z,8.47
2023-02-19T04:15:31.683Z,8.44
2023-02-19T04:16:37.159Z,8.39
2023-02-19T04:17:43.763Z,8.51
2023-02-19T04:18:49.361Z,8.49
2023-02-19T04:19:54.147Z,8.54
2023-02-19T04:20:58.039Z,8.50
2023-02-19T04:22:01.542Z,8.56
2023-02-19T04:23:03.781Z,8.45
2023-02-19T04:24:38.524Z,8.39
2023-02-19T04:25:44.078Z,8.40
2023-02-19T04:26:46.867Z,8.37
2023-02-19T04:27:49.282Z,8.36
2023-02-19T04:28:51.506Z,8.43
2023-02-19T04:29:53.811Z,8.42
2023-02-19T04:30:56.094Z,8.34
2023-02-19T04:31:58.327Z,8.40
2023-02-19T04:33:00.580Z,8.39
2023-02-19T04:34:04.200Z,8.45
2023-02-19T04:35:06.451Z,8.46
2023-02-19T04:36:10.834Z,8.15
2023-02-19T04:37:13.287Z,8.13
2023-02-19T04:38:15.640Z,8.18
2023-02-19T04:39:17.846Z,8.19
2023-02-19T04:40:20.184Z,8.27
2023-02-19T04:41:22.487Z,8.13
2023-02-19T04:42:24.672Z,8.00
2023-02-19T04:43:26.907Z,8.02
2023-02-19T04:44:29.167Z,8.07
2023-02-19T04:45:31.402Z,8.18
2023-02-19T04:46:33.885Z,8.13
2023-02-19T04:47:36.124Z,8.12
2023-02-19T04:48:38.438Z,8.19
2023-02-19T04:49:40.648Z,8.26
2023-02-19T04:50:42.883Z,8.25
2023-02-19T04:51:45.088Z,8.14
2023-02-19T04:52:47.298Z,8.18
2023-02-19T04:53:49.539Z,8.11
2023-02-19T04:54:51.800Z,8.27
2023-02-19T04:55:54.063Z,8.40
2023-02-19T04:56:57.425Z,8.41
2023-02-19T04:58:00.303Z,8.30
2023-02-19T04:59:02.780Z,8.18
2023-02-19T05:00:05.465Z,8.25
2023-02-19T05:01:08.911Z,8.26
2023-02-19T05:02:11.433Z,8.23
2023-02-19T05:03:13.658Z,8.27
2023-02-19T05:04:15.929Z,8.35
2023-02-19T05:05:18.132Z,8.38
2023-02-19T05:06:20.490Z,8.34
2023-02-19T05:07:22.800Z,8.18
2023-02-19T05:08:25.054Z,8.16
2023-02-19T05:09:27.325Z,8.18
2023-02-19T05:10:29.489Z,8.18
2023-02-19T05:11:31.739Z,8.28
2023-02-19T05:12:33.979Z,8.11
2023-02-19T05:13:37.064Z,8.23
2023-02-19T05:14:39.297Z,8.27
2023-02-19T05:15:41.570Z,8.30
2023-02-19T05:16:43.775Z,8.26
2023-02-19T05:17:45.990Z,8.32
2023-02-19T05:18:48.512Z,8.15
2023-02-19T05:19:50.687Z,8.23
2023-02-19T05:20:52.974Z,8.18
2023-02-19T05:21:55.185Z,8.07
2023-02-19T05:22:57.473Z,7.95
2023-02-19T05:23:59.634Z,7.85
2023-02-19T05:25:01.875Z,7.83
2023-02-19T05:26:06.563Z,7.94
2023-02-19T05:27:08.824Z,7.80
2023-02-19T05:28:19.713Z,7.77
2023-02-19T05:29:21.972Z,7.83
2023-02-19T05:30:24.180Z,7.91
2023-02-19T05:31:26.539Z,7.92
2023-02-19T05:32:28.841Z,7.94
2023-02-19T05:33:31.053Z,7.86
2023-02-19T05:34:33.207Z,7.85
2023-02-19T05:35:40.986Z,7.84
2023-02-19T05:36:43.205Z,7.84
2023-02-19T05:37:45.452Z,7.81
2023-02-19T05:38:48.267Z,7.78
2023-02-19T05:39:50.466Z,7.79
2023-02-19T05:40:52.640Z,7.85
2023-02-19T05:41:54.925Z,7.89
2023-02-19T05:42:57.107Z,7.85
2023-02-19T05:43:59.354Z,7.84
2023-02-19T05:45:01.545Z,7.86
2023-02-19T05:46:03.822Z,7.88
2023-02-19T05:47:06.025Z,7.83
2023-02-19T05:48:08.651Z,7.83
2023-02-19T05:49:10.886Z,7.89
2023-02-19T05:50:13.175Z,8.04
2023-02-19T05:51:18.567Z,8.03
2023-02-19T05:52:20.744Z,7.86
2023-02-19T05:53:22.938Z,7.85
2023-02-19T05:54:25.413Z,7.89
2023-02-19T05:55:28.695Z,7.92
2023-02-19T05:56:36.393Z,7.91
2023-02-19T05:57:46.915Z,7.87
2023-02-19T05:58:49.701Z,7.98
2023-02-19T05:59:51.924Z,8.04
2023-02-19T06:00:54.901Z,7.97
2023-02-19T06:01:58.196Z,8.05
2023-02-19T06:03:01.355Z,8.15
2023-02-19T06:04:03.803Z,7.97
2023-02-19T06:05:06.572Z,7.94
2023-02-19T06:06:12.960Z,8.01
2023-02-19T06:07:15.178Z,8.00
2023-02-19T06:08:17.416Z,7.98
2023-02-19T06:09:19.613Z,7.99
2023-02-19T06:10:22.545Z,8.10
2023-02-19T06:11:24.977Z,8.10
2023-02-19T06:12:27.525Z,8.12
2023-02-19T06:13:29.749Z,8.07
2023-02-19T06:14:31.946Z,8.13
2023-02-19T06:15:34.148Z,8.21
2023-02-19T06:16:36.431Z,8.16
2023-02-19T06:17:38.694Z,8.23
2023-02-19T06:18:41.205Z,8.18
2023-02-19T06:19:43.863Z,8.12
2023-02-19T06:20:46.080Z,8.17
2023-02-19T06:21:50.264Z,8.15
2023-02-19T06:22:52.445Z,8.16
2023-02-19T06:23:54.795Z,8.27
2023-02-19T06:24:56.985Z,8.24
2023-02-19T06:26:14.372Z,8.07
2023-02-19T06:27:16.594Z,8.01
2023-02-19T06:28:18.979Z,8.18
2023-02-19T06:29:21.126Z,8.16
2023-02-19T06:30:23.402Z,8.14
2023-02-19T06:31:25.942Z,8.09
2023-02-19T06:32:28.230Z,8.03
2023-02-19T06:33:30.501Z,8.11
2023-02-19T06:34:33.633Z,8.08
2023-02-19T06:35:36.285Z,8.08
2023-02-19T06:36:38.494Z,8.14
2023-02-19T06:37:40.746Z,8.15
2023-02-19T06:38:43.512Z,8.18
2023-02-19T06:39:45.751Z,8.22
2023-02-19T06:40:47.886Z,8.13
2023-02-19T06:41:50.469Z,8.19
2023-02-19T06:42:52.731Z,8.08
2023-02-19T06:43:55.142Z,8.16
2023-02-19T06:44:57.341Z,8.04
2023-02-19T06:46:00.671Z,8.18
2023-02-19T06:47:02.921Z,8.15
2023-02-19T06:48:05.573Z,8.06
2023-02-19T06:49:07.787Z,8.02
2023-02-19T06:50:10.038Z,8.23
2023-02-19T06:51:23.750Z,8.16
2023-02-19T06:52:27.364Z,8.18
2023-02-19T06:53:29.782Z,8.12
2023-02-19T06:54:33.319Z,8.14
2023-02-19T06:55:35.639Z,8.18
2023-02-19T06:56:42.052Z,8.19
2023-02-19T06:57:44.316Z,8.13
2023-02-19T06:58:46.502Z,8.19
2023-02-19T06:59:48.704Z,8.27
2023-02-19T07:00:50.941Z,8.35
2023-02-19T07:01:53.170Z,8.36
2023-02-19T07:02:56.640Z,8.20
2023-02-19T07:03:59.034Z,8.24
2023-02-19T07:05:01.198Z,8.28
2023-02-19T07:06:03.551Z,8.07
2023-02-19T07:07:05.863Z,8.14
2023-02-19T07:08:08.063Z,8.16
2023-02-19T07:09:11.139Z,8.19
2023-02-19T07:10:13.322Z,8.33
2023-02-19T07:11:15.669Z,8.43
2023-02-19T07:12:17.934Z,8.41
2023-02-19T07:13:20.190Z,8.26
2023-02-19T07:14:22.620Z,8.31
2023-02-19T07:15:24.819Z,8.23
2023-02-19T07:16:28.190Z,8.20
2023-02-19T07:17:30.453Z,8.07
2023-02-19T07:18:32.806Z,8.24
2023-02-19T07:19:35.049Z,8.14
2023-02-19T07:20:37.694Z,8.09
2023-02-19T07:21:40.104Z,8.18
2023-02-19T07:22:42.334Z,8.12
2023-02-19T07:23:45.682Z,8.27
2023-02-19T07:24:48.068Z,8.26
2023-02-19T07:25:50.299Z,8.13
2023-02-19T07:26:52.531Z,8.24
2023-02-19T07:27:54.702Z,8.25
2023-02-19T07:28:56.880Z,8.29
2023-02-19T07:29:59.495Z,8.24
2023-02-19T07:31:03.684Z,8.30
2023-02-19T07:32:05.988Z,8.35
2023-02-19T07:33:10.448Z,8.30
2023-02-19T07:34:12.877Z,8.24
2023-02-19T07:35:15.096Z,8.30
2023-02-19T07:36:18.475Z,8.23
2023-02-19T07:37:20.762Z,8.32
2023-02-19T07:38:25.105Z,8.24
2023-02-19T07:39:27.338Z,8.20
2023-02-19T07:40:29.603Z,8.13
2023-02-19T07:41:31.932Z,8.10
2023-02-19T07:42:34.191Z,8.26
2023-02-19T07:43:38.135Z,8.22
2023-02-19T07:44:40.328Z,8.18
2023-02-19T07:45:42.509Z,8.32
2023-02-19T07:46:44.974Z,8.20
2023-02-19T07:47:47.122Z,8.30
2023-02-19T07:48:49.342Z,8.17
2023-02-19T07:49:51.524Z,8.17
2023-02-19T07:50:59.459Z,8.19
2023-02-19T07:52:01.690Z,8.28
2023-02-19T07:53:04.003Z,8.20
2023-02-19T07:54:06.378Z,8.08
2023-02-19T07:55:08.565Z,8.09
2023-02-19T07:56:12.412Z,8.10
2023-02-19T07:57:14.704Z,8.07
2023-02-19T07:58:17.110Z,8.20
2023-02-19T07:59:21.481Z,8.27
2023-02-19T08:00:23.875Z,8.20
2023-02-19T08:01:44.936Z,8.24
2023-02-19T08:03:02.908Z,8.18
2023-02-19T08:04:05.223Z,8.22
2023-02-19T08:05:07.566Z,8.31
2023-02-19T08:06:11.129Z,8.24
2023-02-19T08:07:13.461Z,8.21
2023-02-19T08:08:16.322Z,8.18
2023-02-19T08:09:18.524Z,8.17
2023-02-19T08:10:39.601Z,8.19
2023-02-19T08:12:00.510Z,8.15
2023-02-19T08:13:22.149Z,8.22
2023-02-19T08:14:26.090Z,8.22
2023-02-19T08:15:28.364Z,8.18
2023-02-19T08:16:42.566Z,8.15
2023-02-19T08:17:45.675Z,8.11
2023-02-19T08:18:48.730Z,8.22
2023-02-19T08:19:50.951Z,8.34
2023-02-19T08:20:55.338Z,8.44
2023-02-19T08:21:57.738Z,8.30
2023-02-19T08:22:59.951Z,8.42
2023-02-19T08:24:02.228Z,8.45
2023-02-19T08:25:04.599Z,8.50
2023-02-19T08:26:07.354Z,8.49
2023-02-19T08:27:09.546Z,8.47
2023-02-19T08:28:11.791Z,8.50
2023-02-19T08:29:14.044Z,8.57
2023-02-19T08:30:16.371Z,8.51
2023-02-19T08:31:18.687Z,8.64
2023-02-19T08:32:21.101Z,8.58
2023-02-19T08:33:23.393Z,8.57
2023-02-19T08:34:25.654Z,8.53
2023-02-19T08:35:28.697Z,8.58
2023-02-19T08:36:30.893Z,8.60
2023-02-19T08:37:33.169Z,8.65
2023-02-19T08:38:36.539Z,8.60
2023-02-19T08:39:38.706Z,8.58
2023-02-19T08:40:41.021Z,8.65
2023-02-19T08:41:43.275Z,8.55
2023-02-19T08:42:45.424Z,8.53
2023-02-19T08:43:47.632Z,8.69
2023-02-19T08:44:49.869Z,8.80
2023-02-19T08:45:53.915Z,8.85
2023-02-19T08:46:56.229Z,8.74
2023-02-19T08:47:58.888Z,8.78
2023-02-19T08:49:01.071Z,8.68
2023-02-19T08:50:04.979Z,8.76
2023-02-19T08:51:10.480Z,8.78
2023-02-19T08:52:12.956Z,8.70
2023-02-19T08:53:15.126Z,8.83
2023-02-19T08:54:17.301Z,8.80
2023-02-19T08:55:19.592Z,8.83
2023-02-19T08:56:22.032Z,8.96
2023-02-19T08:57:24.967Z,8.84
2023-02-19T08:58:27.154Z,8.78
2023-02-19T08:59:29.472Z,8.81
2023-02-19T09:00:32.134Z,8.76
2023-02-19T09:01:34.413Z,8.94
2023-02-19T09:02:36.772Z,8.90
2023-02-19T09:03:39.286Z,9.00
2023-02-19T09:04:41.460Z,9.05
2023-02-19T09:05:46.735Z,9.10
2023-02-19T09:06:48.939Z,9.05
2023-02-19T09:07:51.152Z,9.02
2023-02-19T09:08:53.342Z,9.04
2023-02-19T09:09:55.546Z,9.09
2023-02-19T09:11:06.971Z,9.06
2023-02-19T09:12:11.653Z,9.12
2023-02-19T09:13:13.906Z,9.09
2023-02-19T09:14:16.143Z,9.33
2023-02-19T09:15:18.424Z,9.48
2023-02-19T09:16:20.687Z,9.53
2023-02-19T09:17:22.870Z,9.61
2023-02-19T09:18:25.823Z,9.72
2023-02-19T09:19:28.470Z,9.99
2023-02-19T09:20:30.636Z,9.90
2023-02-19T09:21:32.901Z,10.10
2023-02-19T09:22:35.107Z,10.17
2023-02-19T09:23:37.316Z,10.43
2023-02-19T09:24:39.536Z,10.27
2023-02-19T09:25:41.736Z,10.63
2023-02-19T09:26:43.916Z,10.54
2023-02-19T09:27:46.090Z,10.57
2023-02-19T09:28:48.380Z,10.88
2023-02-19T09:29:50.529Z,10.65
2023-02-19T09:30:52.715Z,10.83
2023-02-19T09:31:59.261Z,10.84
2023-02-19T09:33:01.545Z,11.10
2023-02-19T09:34:05.483Z,11.13
2023-02-19T09:35:07.766Z,10.55
2023-02-19T09:36:10.515Z,10.63
2023-02-19T09:37:12.687Z,10.61
2023-02-19T09:38:14.934Z,10.65
2023-02-19T09:39:17.157Z,10.92
2023-02-19T09:40:22.344Z,10.82
2023-02-19T09:41:31.717Z,11.03
2023-02-19T09:42:33.934Z,10.63
2023-02-19T09:43:37.412Z,10.68
2023-02-19T09:44:43.515Z,10.44
2023-02-19T09:45:46.293Z,10.32
2023-02-19T09:46:51.487Z,10.48
2023-02-19T09:47:57.055Z,10.40
2023-02-19T09:49:05.547Z,10.31
2023-02-19T09:50:10.051Z,10.65
2023-02-19T09:51:13.905Z,10.68
2023-02-19T09:52:35.261Z,10.43
2023-02-19T09:53:44.162Z,10.88
2023-02-19T09:54:47.255Z,11.03
2023-02-19T09:55:50.216Z,11.41
2023-02-19T09:56:55.426Z,11.62
2023-02-19T09:58:02.317Z,12.00
2023-02-19T09:59:05.956Z,11.67
2023-02-19T10:00:22.609Z,11.89
2023-02-19T10:01:30.547Z,12.08
2023-02-19T10:02:33.179Z,12.03
2023-02-19T10:03:40.650Z,11.93
2023-02-19T10:04:45.011Z,11.93
2023-02-19T10:05:47.970Z,11.98
2023-02-19T10:06:51.479Z,11.44
2023-02-19T10:07:55.382Z,11.33
2023-02-19T10:09:20.792Z,11.14
2023-02-19T10:10:30.691Z,10.88
2023-02-19T10:11:32.959Z,10.48
2023-02-19T10:12:35.222Z,10.70
2023-02-19T10:13:55.734Z,10.39
2023-02-19T10:15:05.799Z,10.26
2023-02-19T10:16:15.951Z,10.15
2023-02-19T10:17:24.833Z,10.09
2023-02-19T10:18:32.353Z,10.13
2023-02-19T10:19:35.993Z,9.92
2023-02-19T10:20:38.894Z,9.86
2023-02-19T10:21:41.943Z,9.98
2023-02-19T10:22:44.641Z,9.83
2023-02-19T10:23:50.896Z,9.88
2023-02-19T10:24:54.759Z,9.80
2023-02-19T10:25:58.990Z,10.17
2023-02-19T10:27:01.183Z,10.02
2023-02-19T10:28:04.667Z,10.02
2023-02-19T10:29:06.895Z,9.80
2023-02-19T10:30:31.295Z,9.67
2023-02-19T10:31:34.002Z,9.85
2023-02-19T10:32:36.313Z,9.72
2023-02-19T10:33:52.428Z,9.70
2023-02-19T10:35:15.396Z,9.69
2023-02-19T10:36:36.182Z,9.71
2023-02-19T10:37:49.905Z,9.60
2023-02-19T10:38:53.271Z,9.49
2023-02-19T10:39:56.252Z,9.44
2023-02-19T10:41:20.922Z,9.69
2023-02-19T10:42:23.382Z,9.53
2023-02-19T10:43:33.089Z,9.60
2023-02-19T10:44:42.571Z,9.56
2023-02-19T10:45:50.223Z,9.58
2023-02-19T10:46:55.297Z,9.62
2023-02-19T10:47:57.980Z,9.86
2023-02-19T10:49:18.748Z,10.19
2023-02-19T10:50:31.141Z,10.46
2023-02-19T10:51:37.674Z,10.63
2023-02-19T10:52:40.021Z,10.84
2023-02-19T10:53:48.020Z,10.71
2023-02-19T10:54:57.292Z,10.72
2023-02-19T10:56:23.532Z,11.10
2023-02-19T10:57:34.161Z,11.25
2023-02-19T10:58:37.861Z,11.11
2023-02-19T10:59:49.849Z,11.09
2023-02-19T11:01:16.859Z,10.90
2023-02-19T11:02:21.363Z,11.07
2023-02-19T11:03:23.968Z,11.06
2023-02-19T11:04:34.046Z,11.11
2023-02-19T11:05:38.330Z,11.31
2023-02-19T11:06:40.716Z,11.40
2023-02-19T11:07:52.081Z,11.09
2023-02-19T11:08:58.329Z,11.13
2023-02-19T11:10:01.238Z,11.41
2023-02-19T11:11:03.493Z,11.35
2023-02-19T11:12:08.428Z,11.30
2023-02-19T11:13:19.404Z,11.27
2023-02-19T11:14:24.481Z,11.21
2023-02-19T11:15:32.794Z,11.10
2023-02-19T11:16:41.167Z,10.91
2023-02-19T11:17:43.528Z,11.09
2023-02-19T11:18:57.018Z,10.88
2023-02-19T11:20:16.521Z,10.87
2023-02-19T11:21:33.479Z,10.88
2023-02-19T11:22:39.041Z,10.70
2023-02-19T11:23:45.913Z,10.70
2023-02-19T11:24:52.571Z,10.78
2023-02-19T11:26:00.554Z,10.55
2023-02-19T11:27:06.581Z,10.78
2023-02-19T11:28:26.748Z,10.85
2023-02-19T11:29:34.560Z,10.67
2023-02-19T11:30:41.084Z,10.67
2023-02-19T11:31:43.516Z,10.89
2023-02-19T11:32:45.797Z,11.02
2023-02-19T11:34:29.142Z,11.01
2023-02-19T11:35:31.364Z,10.81
2023-02-19T11:36:37.617Z,10.78
2023-02-19T11:37:59.415Z,10.51
2023-02-19T11:39:26.336Z,10.51
2023-02-19T11:40:39.403Z,10.46
2023-02-19T11:42:12.372Z,10.58
2023-02-19T11:43:51.798Z,10.65
2023-02-19T11:45:12.032Z,10.77
2023-02-19T11:46:30.668Z,10.70
2023-02-19T11:47:54.432Z,10.54
2023-02-19T11:49:14.891Z,10.75
2023-02-19T11:50:27.180Z,10.82
2023-02-19T11:51:51.472Z,10.93
2023-02-19T11:53:03.428Z,10.99
2023-02-19T11:54:16.845Z,11.02
2023-02-19T11:55:51.328Z,10.88
2023-02-19T11:57:12.959Z,10.95
2023-02-19T11:58:27.307Z,10.88
2023-02-19T11:59:44.846Z,10.70
2023-02-19T12:01:25.634Z,10.73
2023-02-19T12:02:56.084Z,10.59
2023-02-19T12:04:16.751Z,10.55
2023-02-19T12:05:22.909Z,10.67
2023-02-19T12:07:09.972Z,10.68
2023-02-19T12:08:39.801Z,10.71
2023-02-19T12:09:57.513Z,10.77
2023-02-19T12:11:14.395Z,10.85
2023-02-19T12:12:22.409Z,10.74
2023-02-19T12:13:53.362Z,10.60
2023-02-19T12:15:01.110Z,10.78
2023-02-19T12:16:31.024Z,10.91
2023-02-19T12:17:48.019Z,10.79
2023-02-19T12:19:05.156Z,10.69
2023-02-19T12:20:30.153Z,10.79
2023-02-19T12:21:55.465Z,10.66
2023-02-19T12:23:18.660Z,10.81
2023-02-19T12:24:57.576Z,10.71
2023-02-19T12:26:21.915Z,10.92
2023-02-19T12:27:59.034Z,10.69
2023-02-19T12:29:32.468Z,10.65
2023-02-19T12:30:47.411Z,10.45
2023-02-19T12:32:09.556Z,10.52
2023-02-19T12:33:33.679Z,10.56
2023-02-19T12:34:51.924Z,10.43
2023-02-19T12:36:06.463Z,10.57
2023-02-19T12:37:25.035Z,10.84
2023-02-19T12:38:44.047Z,11.01
2023-02-19T12:39:52.001Z,11.28
2023-02-19T12:41:22.061Z,11.34
2023-02-19T12:42:51.038Z,11.56
2023-02-19T12:44:00.261Z,11.55
2023-02-19T12:45:24.566Z,11.40
2023-02-19T12:46:35.223Z,11.28
2023-02-19T12:47:42.071Z,11.29
2023-02-19T12:49:14.623Z,11.14
2023-02-19T12:50:24.379Z,11.37
2023-02-19T12:51:39.446Z,11.52
2023-02-19T12:52:46.970Z,11.31
2023-02-19T12:54:14.998Z,11.07
2023-02-19T12:55:25.413Z,10.96
2023-02-19T12:56:44.168Z,10.68
2023-02-19T12:57:47.356Z,10.46
2023-02-19T12:58:58.854Z,10.40
2023-02-19T13:00:23.703Z,10.33
2023-02-19T13:01:30.451Z,10.37
2023-02-19T13:02:48.607Z,10.43
2023-02-19T13:04:04.597Z,10.63
2023-02-19T13:05:19.326Z,10.45
2023-02-19T13:06:33.333Z,10.21
2023-02-19T13:07:35.612Z,10.47
2023-02-19T13:09:03.433Z,10.46
2023-02-19T13:10:32.938Z,10.44
2023-02-19T13:11:46.013Z,10.53
2023-02-19T13:12:51.850Z,10.48
2023-02-19T13:14:25.373Z,10.72
2023-02-19T13:15:37.420Z,10.76
2023-02-19T13:16:43.968Z,10.64
2023-02-19T13:17:51.185Z,10.77
2023-02-19T13:19:03.116Z,10.86
2023-02-19T13:20:17.825Z,11.05
2023-02-19T13:21:41.220Z,11.24
2023-02-19T13:23:09.896Z,11.24
2023-02-19T13:24:20.371Z,11.55
2023-02-19T13:25:29.828Z,11.25
2023-02-19T13:26:43.088Z,11.51
2023-02-19T13:28:26.879Z,11.78
2023-02-19T13:29:47.615Z,11.58
2023-02-19T13:31:21.784Z,11.75
2023-02-19T13:32:47.399Z,11.87
2023-02-19T13:34:23.937Z,11.87
2023-02-19T13:36:12.597Z,11.96
2023-02-19T13:37:16.627Z,11.76
2023-02-19T13:38:19.545Z,11.58
2023-02-19T13:39:22.832Z,11.86
2023-02-19T13:40:30.267Z,11.72
2023-02-19T13:41:41.398Z,11.70
2023-02-19T13:42:52.650Z,11.49
2023-02-19T13:44:01.371Z,11.47
2023-02-19T13:45:05.565Z,11.77
2023-02-19T13:46:16.432Z,11.86
2023-02-19T13:47:48.010Z,11.90
2023-02-19T13:49:37.221Z,11.84
2023-02-19T13:50:40.047Z,11.29
2023-02-19T13:51:49.446Z,11.25
2023-02-19T13:52:53.672Z,11.49
2023-02-19T13:53:55.947Z,11.67
2023-02-19T13:55:35.591Z,11.66
2023-02-19T13:56:39.476Z,11.69
2023-02-19T13:57:41.683Z,11.53
2023-02-19T13:58:57.878Z,11.49
2023-02-19T14:00:00.319Z,11.48
2023-02-19T14:01:09.375Z,11.59
2023-02-19T14:02:22.046Z,11.51
2023-02-19T14:03:39.529Z,11.53
2023-02-19T14:04:43.502Z,11.30
2023-02-19T14:06:01.237Z,11.24
2023-02-19T14:07:03.497Z,11.49
2023-02-19T14:08:09.310Z,11.65
2023-02-19T14:09:36.572Z,11.52
2023-02-19T14:10:57.951Z,11.52
2023-02-19T14:12:17.571Z,11.39
2023-02-19T14:13:47.400Z,11.44
2023-02-19T14:14:53.616Z,11.40
2023-02-19T14:15:56.258Z,11.27
2023-02-19T14:17:20.505Z,11.36
2023-02-19T14:18:45.577Z,11.41
2023-02-19T14:19:55.766Z,11.52
2023-02-19T14:21:14.137Z,11.40
2023-02-19T14:22:47.350Z,11.12
2023-02-19T14:23:55.815Z,11.16
2023-02-19T14:24:58.403Z,11.31
2023-02-19T14:26:02.345Z,11.35
2023-02-19T14:27:04.831Z,11.36
2023-02-19T14:28:17.145Z,11.66
2023-02-19T14:29:19.666Z,11.56
2023-02-19T14:30:23.811Z,11.54
2023-02-19T14:31:39.853Z,11.50
2023-02-19T14:32:43.634Z,11.48
2023-02-19T14:33:53.537Z,11.43
2023-02-19T14:34:58.045Z,11.24
2023-02-19T14:36:18.976Z,11.13
2023-02-19T14:37:22.552Z,11.12
2023-02-19T14:38:33.174Z,10.89
2023-02-19T14:39:38.721Z,11.09
2023-02-19T14:40:42.286Z,11.05
2023-02-19T14:41:49.572Z,11.07
2023-02-19T14:42:57.281Z,11.15
2023-02-19T14:44:02.110Z,11.08
2023-02-19T14:45:07.313Z,11.18
2023-02-19T14:46:20.149Z,11.13
2023-02-19T14:47:25.640Z,11.05
2023-02-19T14:48:38.568Z,11.16
2023-02-19T14:49:46.793Z,11.13
2023-02-19T14:50:52.024Z,10.96
2023-02-19T14:51:59.450Z,11.05
2023-02-19T14:53:05.960Z,11.03
2023-02-19T14:54:37.070Z,11.03
2023-02-19T14:55:42.773Z,10.74
2023-02-19T14:56:50.074Z,10.91
2023-02-19T14:57:54.502Z,10.96
2023-02-19T14:59:13.165Z,11.00
2023-02-19T15:00:29.643Z,10.91
2023-02-19T15:01:32.325Z,11.05